Tiempo atmosférico en la estación meteorológica de Mora, Toledo (717 m.)



Fecha
DESCASC
Temp. máxima en grados centígrados (hora)
DESCASC
Temp. mínima en grados centígrados (hora)
DESCASC
Temp. media en grados centígrados
DESCASC
Racha de viento máxima en m/sg (hora)
DESCASC
Velocidad máxima media en intervalos de 10 minutos(hora)
DESCASC
Precipitaciones diarias en mm
DESCASC
Precipitaciones de 00:00 a 06:00 en mm
DESCASC
Precipitaciones de 06:00 a 12:00 en mm
DESCASC
Precipitaciones de 12:00 a 18:00 en mm
DESCASC
Precipitaciones de 18:00 a 24:00 en mm
DESCASC
15-11-2018 17.1 (14:40) 11 (08:20) 14.1 12.22 (00:40) 6.11 (00:50) 0 0 0 0 0
14-11-2018 18.2 (13:50) 11.2 (03:20) 14.7 12.5 (21:20) 6.11 (23:30) 0 0 0 0 0
13-11-2018 17.8 (16:10) 7.4 (02:50) 12.6 9.72 (22:10) 5 (22:40) 0 0 0 0 0
12-11-2018 16.5 (15:50) 8.4 (23:50) 12.4 8.33 (00:40) 4.72 (00:40) 0 0 0 0 0
11-11-2018 16.7 (15:00) 11.2 (00:00) 14 9.44 (22:30) 5 (23:50) 0 0 0 0 0
10-11-2018 14.4 (14:00) 9 (00:00) 11.7 12.22 (13:00) 6.67 (16:40) 0 0 0 0 0
09-11-2018 12.3 (16:10) 4.5 (00:00) 8.4 10 (14:20) 6.11 (12:50) 0 0 0 0 0
08-11-2018 13.4 (14:00) 5.5 (00:00) 9.4 11.11 (22:10) 5.28 (22:10) 5.6 0 0 5 0.6
07-11-2018 14.6 (15:50) 7.6 (00:00) 11.1 10.28 (08:50) 5 (08:50) 0.4 0 0 0.4 0
06-11-2018 10.7 (13:50) 4.4 (00:00) 7.5 8.61 (12:40) 5 (12:40) 0 0 0 0 0
05-11-2018 11.5 (00:00) 6.7 (00:00) 9.1 10.83 (11:50) 6.11 (11:50) 9 4.4 2.8 1.6 0.2
04-11-2018 18.4 (14:10) 4.1 (00:00) 11.2 6.39 (17:30) 3.33 (17:00) 0 0 0 0 0
03-11-2018 17.8 (15:20) 4.5 (00:00) 11.1 3.61 (15:50) 2.22 (15:50) 0 0 0 0 0
02-11-2018 18.1 (14:20) 7.6 (00:00) 12.9 9.72 (14:20) 6.39 (15:50) 0 0 0 0 0
01-11-2018 15.1 (16:00) 3.7 (00:00) 9.4 5.28 (12:10) 3.89 (12:10) 0 0 0 0 0
31-10-2018 10.4 (15:20) 5.4 (00:00) 7.9 9.72 (13:50) 6.11 (13:50) 2.4 0.4 2 0 0
30-10-2018 -- (--) -- (--) -- -- (--) -- (--) -- -- -- 3.2 4.8
29-10-2018 -- (--) -- (--) -- -- (--) -- (--) -- -- -- -- --
28-10-2018 -- (--) -- (--) -- -- (--) -- (--) -- -- -- -- --
27-10-2018 -- (--) -- (--) -- -- (--) -- (--) -- -- -- -- --
26-10-2018 -- (--) -- (--) -- -- (--) -- (--) -- 0 -- -- --
25-10-2018 25.2 (15:50) 9.1 (00:00) 17.2 4.72 (16:40) 2.5 (16:40) 0 0 0 0 0
24-10-2018 24.1 (17:00) 8.8 (00:00) 16.5 4.44 (14:10) 2.5 (16:50) 0 0 0 0 0
23-10-2018 23.8 (17:10) 12.6 (00:00) 18.2 8.33 (16:10) 3.33 (03:50) 0 0 0 0 0
22-10-2018 24 (17:00) 11.4 (00:00) 17.7 4.72 (14:00) 2.78 (17:10) 0 0 0 0 0
21-10-2018 22.6 (17:10) 15 (00:00) 18.8 12.78 (01:30) 6.39 (00:10) 0.2 0 0 0 0.2
20-10-2018 20.6 (15:50) 11.8 (00:00) 16.2 15.28 (23:10) 7.22 (23:59) 0 0 0 0 0
19-10-2018 15.3 (12:30) 11.5 (00:00) 13.4 6.39 (00:30) 4.17 (00:40) 3 0 0 2.8 0.2
18-10-2018 20.4 (14:40) 12.4 (00:00) 16.4 10 (17:50) 5.83 (16:50) 0 0 0 0 0

Gráficas

Temp. máximas Temp. mínimas Temp. medias Precipitaciones Rachas de viento máximas Velocidades máximas media en intervalos de 10 minutos

Datos horarios

Fecha y hora oficial Temperatura (ºC) Velocidad del viento (km/h) Dirección del viento Racha (km/h) Dirección de racha Precipitación (mm) Presión (hPa) Tendencia (hPa) Humedad (%)
2018-11-16 23:00:00 11.7 8 Sudeste 23 Este 0 -- -- 88
2018-11-16 22:00:00 11.7 8 Sudeste 32 Sudeste 0 -- -- 85
2018-11-16 21:00:00 12.2 13 Sudeste 32 Sudeste 0 -- -- 84
2018-11-16 20:00:00 12.9 12 Este 27 Sudeste 0 -- -- 83
2018-11-16 19:00:00 13.9 9 Este 25 Este 0 -- -- 82
2018-11-16 18:00:00 14.1 18 Este 34 Este 0 -- -- 75
2018-11-16 17:00:00 16.5 14 Sudeste 30 Sudeste 0 -- -- 68
2018-11-16 16:00:00 17.6 13 Este 30 Este 0 -- -- 66
2018-11-16 15:00:00 17.7 12 Sudeste 29 Este 0 -- -- 64
2018-11-16 14:00:00 17 12 Este 29 Este 0 -- -- 70
2018-11-16 13:00:00 15.7 11 Este 28 Este 0 -- -- 76
2018-11-16 12:00:00 15 13 Sudeste 21 Sudeste 0 -- -- 80
2018-11-16 11:00:00 13.8 11 Sudeste 21 Sudeste 0 -- -- 86
2018-11-16 10:00:00 12.5 9 Sudeste 22 Sudeste 0 -- -- 90
2018-11-16 09:00:00 11.7 10 Sudeste 27 Sudeste 0 -- -- 95
2018-11-16 08:00:00 11.1 6 Sudeste 22 Este 0 -- -- 96
2018-11-16 07:00:00 11.1 12 Sudeste 29 Sudeste 0 -- -- 95
2018-11-16 06:00:00 11.4 13 Sudeste 33 Sudeste 0 -- -- 93
2018-11-16 05:00:00 11.6 15 Sudeste 33 Sudeste 0 -- -- 93
2018-11-16 04:00:00 11.9 12 Este 28 Este 0 -- -- 92
2018-11-16 03:00:00 12.1 12 Este 28 Este 0 -- -- 91
2018-11-16 02:00:00 12.2 9 Este 23 Este 0 -- -- 91
2018-11-16 01:00:00 12.1 12 Este 27 Este 0 -- -- 90
2018-11-16 00:00:00 12.3 12 Este 28 Este 0 -- -- 89
2018-11-15 23:00:00 12.4 15 Este 29 Este 0 -- -- 87
2018-11-15 22:00:00 12.9 8 Este 22 Este 0 -- -- 84
2018-11-15 21:00:00 13 10 Este 25 Este 0 -- -- 82
2018-11-15 20:00:00 13.4 13 Este 27 Este 0 -- -- 79
2018-11-15 19:00:00 13.8 9 Este 23 Este 0 -- -- 77
2018-11-15 18:00:00 14.4 10 Este 24 Este 0 -- -- 75
2018-11-15 17:00:00 15.7 7 Este 21 Este 0 -- -- 65
2018-11-15 16:00:00 16.1 9 Este 27 Sudeste 0 -- -- 70
2018-11-15 15:00:00 16.5 8 Este 19 Sudeste 0 -- -- 68
2018-11-15 14:00:00 15.9 10 Este 27 Este 0 -- -- 72
2018-11-15 13:00:00 14.3 7 Este 18 Este 0 -- -- 80
2018-11-15 12:00:00 13.5 8 Nordeste 20 Este 0 -- -- 81
2018-11-15 11:00:00 13 12 Este 35 Este 0 -- -- 82
2018-11-15 10:00:00 13.4 14 Este 32 Sudeste 0 -- -- 82
2018-11-15 09:00:00 11.3 13 Este 30 Sudeste 0 -- -- 90
2018-11-15 08:00:00 11.3 9 Este 26 Sudeste 0 -- -- 91
2018-11-15 07:00:00 11.3 6 Sudeste 27 Sudeste 0 -- -- 93
2018-11-15 06:00:00 11.1 10 Sudeste 31 Sudeste 0 -- -- 93
2018-11-15 05:00:00 11.6 17 Sudeste 40 Este 0 -- -- 90
2018-11-15 04:00:00 11.3 17 Sudeste 35 Sudeste 0 -- -- 92
2018-11-15 03:00:00 11.2 21 Sudeste 39 Este 0 -- -- 91
2018-11-15 02:00:00 11.1 16 Sudeste 37 Este 0 -- -- 90
2018-11-15 01:00:00 11.5 20 Este 44 Este 0 -- -- 89
2018-11-15 00:00:00 11.9 21 Este 44 Este 0 -- -- 88
2018-11-14 23:00:00 12.3 21 Este 42 Sudeste 0 -- -- 87
2018-11-14 22:00:00 12.7 15 Este 45 Este 0 -- -- 87
2018-11-14 21:00:00 13.1 18 Este 44 Este 0 -- -- 84
2018-11-14 20:00:00 13.8 19 Este 36 Este 0 -- -- 81
2018-11-14 19:00:00 14.8 14 Este 30 Este 0 -- -- 77
2018-11-14 18:00:00 15.5 11 Este 22 Este 0 -- -- 73
2018-11-14 17:00:00 16.3 12 Sudeste 26 Sudeste 0 -- -- 68
2018-11-14 16:00:00 16.5 10 Este 23 Este 0 -- -- 70
2018-11-14 15:00:00 16.8 15 Sudeste 28 Este 0 -- -- 67
2018-11-14 14:00:00 18.1 15 Sudeste 25 Sudeste 0 -- -- 64
2018-11-14 13:00:00 17.2 12 Este 27 Sudeste 0 -- -- 68
2018-11-14 12:00:00 15.9 15 Sudeste 35 Sudeste 0 -- -- 73
2018-11-14 11:00:00 15.1 12 Este 28 Este 0 -- -- 77
2018-11-14 10:00:00 13.9 8 Sudeste 27 Este 0 -- -- 85
2018-11-14 09:00:00 12 6 Este 21 Este 0 -- -- 92
2018-11-14 08:00:00 11.5 3 Sudeste 19 Este 0 -- -- 93
2018-11-14 07:00:00 11.2 4 Este 21 Sudeste 0 -- -- 94
2018-11-14 06:00:00 11.3 2 Noroeste 21 Este 0 -- -- 93
2018-11-14 05:00:00 11.3 13 Este 26 Este 0 -- -- 92
2018-11-14 04:00:00 11.5 6 Sur 21 Sudeste 0 -- -- 91
2018-11-14 03:00:00 11.4 8 Este 27 Este 0 -- -- 90
2018-11-14 02:00:00 12 11 Este 31 Este 0 -- -- 89
2018-11-14 01:00:00 12 10 Sudeste 27 Sudeste 0 -- -- 89
2018-11-14 00:00:00 12 6 Sudeste 32 Sudeste 0 -- -- 87
2018-11-13 23:00:00 12.4 15 Este 35 Sudeste 0 -- -- 86
2018-11-13 22:00:00 12.7 14 Este 33 Sudeste 0 -- -- 84
2018-11-13 21:00:00 13.1 10 Este 25 Este 0 -- -- 82
2018-11-13 20:00:00 13.9 10 Este 34 Este 0 -- -- 79
2018-11-13 19:00:00 13.9 3 Oeste 25 Sudeste 0 -- -- 77
2018-11-13 18:00:00 14.8 9 Este 23 Este 0 -- -- 75
2018-11-13 17:00:00 17.4 10 Este 23 Nordeste 0 -- -- 66
2018-11-13 16:00:00 17.5 11 Nordeste 20 Nordeste 0 -- -- 65
2018-11-13 15:00:00 16.9 10 Nordeste 19 Nordeste 0 -- -- 69
2018-11-13 14:00:00 15.7 9 Este 15 Nordeste 0 -- -- 73
2018-11-13 13:00:00 14.2 6 Este 15 Nordeste 0 -- -- 79
2018-11-13 12:00:00 13.5 7 Nordeste 11 Norte 0 -- -- 87
2018-11-13 11:00:00 10.9 6 Nordeste 13 Nordeste 0 -- -- 96
2018-11-13 10:00:00 11 3 Este 7 Este 0 -- -- 97
2018-11-13 09:00:00 10.5 0 Calma 10 Este 0 -- -- 98
2018-11-13 08:00:00 10.3 4 Sudeste 12 Sudeste 0 -- -- 98
2018-11-13 07:00:00 10.1 4 Sudeste 13 Sudeste 0 -- -- 98
2018-11-13 06:00:00 10 2 Sudeste 14 Sudeste 0 -- -- 97
2018-11-13 05:00:00 9.6 3 Sudeste 7 Sudeste 0 -- -- 98
2018-11-13 04:00:00 7.8 0 Calma 6 Sur 0 -- -- 97
2018-11-13 03:00:00 7.5 3 Sur 5 Sudeste 0 -- -- 97
2018-11-13 02:00:00 7.9 2 Sudeste 5 Sudeste 0 -- -- 96
2018-11-13 01:00:00 8.3 0 Calma 5 Sur 0 -- -- 96
2018-11-13 00:00:00 8.6 3 Sur 5 Sur 0 -- -- 96
2018-11-12 23:00:00 9.6 2 Este 5 Este 0 -- -- 95
2018-11-12 22:00:00 9.8 3 Sudoeste 4 Sudoeste 0 -- -- 94
2018-11-12 21:00:00 10.5 0 Calma 10 Oeste 0 -- -- 93
2018-11-12 20:00:00 11.1 5 Oeste 12 Noroeste 0 -- -- 90
2018-11-12 19:00:00 12.6 2 Oeste 6 Sur 0 -- -- 75
2018-11-12 18:00:00 14.1 0 Calma 10 Sudeste 0 -- -- 75
2018-11-12 17:00:00 15.7 8 Sudeste 22 Este 0 -- -- 63
2018-11-12 16:00:00 16.3 8 Sudeste 15 Sudeste 0 -- -- 60
2018-11-12 15:00:00 14.6 6 Nordeste 11 Nordeste 0 -- -- 70
2018-11-12 14:00:00 14.2 3 Oeste 10 Oeste 0 -- -- 70
2018-11-12 13:00:00 13.9 2 Este 6 Noroeste 0 -- -- 75
2018-11-12 12:00:00 13 0 Calma 4 Oeste 0 -- -- 74
2018-11-12 11:00:00 12.5 0 Calma 8 Sudoeste 0 -- -- 79
2018-11-12 10:00:00 11.3 3 Sudeste 8 Sudeste 0 -- -- 79
2018-11-12 09:00:00 10.7 3 Sur 19 Sur 0 -- -- 78
2018-11-12 08:00:00 10.3 6 Sudoeste 23 Sudeste 0 -- -- 81
2018-11-12 07:00:00 10.4 11 Sur 22 Sudeste 0 -- -- 81
2018-11-12 06:00:00 10.5 8 Sur 26 Sudeste 0 -- -- 89
2018-11-12 05:00:00 10.5 13 Sur 26 Sudeste 0 -- -- 91
2018-11-12 04:00:00 10.4 6 Sudeste 13 Sur 0 -- -- 90
2018-11-12 03:00:00 10.1 5 Norte 10 Sudeste 0 -- -- 88
2018-11-12 02:00:00 10.7 2 Norte 28 Sur 0 -- -- 86
2018-11-12 01:00:00 13.5 13 Sudoeste 30 Sudoeste 0 -- -- 76
2018-11-12 00:00:00 14 14 Sudoeste 33 Sudoeste 0 -- -- 72
2018-11-11 23:00:00 13.7 15 Sudoeste 34 Sur 0 -- -- 77
2018-11-11 22:00:00 12.9 10 Sur 22 Sudoeste 0 -- -- 84
2018-11-11 21:00:00 11.9 5 Nordeste 26 Sur 0 -- -- 88
2018-11-11 20:00:00 12.8 16 Sur 27 Sudeste 0 -- -- 84
2018-11-11 19:00:00 13.5 9 Sudeste 15 Sudeste 0 -- -- 81
2018-11-11 18:00:00 14.6 5 Sur 26 Sudeste 0 -- -- 75
2018-11-11 17:00:00 16.1 14 Sur 32 Sur 0 -- -- 67
2018-11-11 16:00:00 16 17 Sur 32 Sur 0 -- -- 67
2018-11-11 15:00:00 16.7 11 Sur 26 Sudeste 0 -- -- 68
2018-11-11 14:00:00 15.4 8 Sur 22 Sur 0 -- -- 77
2018-11-11 13:00:00 15.5 7 Sur 21 Sur 0 -- -- 71
2018-11-11 12:00:00 16.4 8 Sudoeste 20 Sudoeste 0 -- -- 67
2018-11-11 11:00:00 14.5 8 Sur 17 Sudoeste 0 -- -- 78
2018-11-11 10:00:00 13 5 Sudoeste 11 Sudoeste 0 -- -- 88
2018-11-11 09:00:00 12.1 5 Sur 13 Sur 0 -- -- 92
2018-11-11 08:00:00 11.5 6 Sur 15 Sur 0 -- -- 91
2018-11-11 07:00:00 11.8 8 Sur 17 Sudoeste 0 -- -- 90
2018-11-11 06:00:00 12.1 5 Sur 22 Sudoeste 0 -- -- 90
2018-11-11 05:00:00 12.7 10 Sudoeste 26 Sudoeste 0 -- -- 85
2018-11-11 04:00:00 12.5 9 Sudoeste 26 Sudoeste 0 -- -- 89
2018-11-11 03:00:00 11.9 6 Sur 22 Sur 0 -- -- 91
2018-11-11 02:00:00 12.3 10 Sur 25 Sur 0 -- -- 90
2018-11-11 01:00:00 12.4 14 Sur 26 Sur 0 -- -- 88
2018-11-11 00:00:00 12.1 9 Sur 24 Sudoeste 0 -- -- 90
2018-11-10 23:00:00 12.2 14 Sudoeste 24 Sudoeste 0 -- -- 88
2018-11-10 22:00:00 11.7 11 Sur 24 Sur 0 -- -- 89
2018-11-10 21:00:00 11.6 13 Sur 30 Sur 0 -- -- 89
2018-11-10 20:00:00 11.7 14 Sur 28 Sudeste 0 -- -- 88
2018-11-10 19:00:00 12.1 10 Sudeste 34 Sudoeste 0 -- -- 85
2018-11-10 18:00:00 13.2 16 Sudoeste 39 Sudoeste 0 -- -- 81
2018-11-10 17:00:00 13.2 19 Sudoeste 42 Sudoeste 0 -- -- 81
2018-11-10 16:00:00 13.8 22 Sudoeste 41 Sudoeste 0 -- -- 78
2018-11-10 15:00:00 14.1 22 Sudoeste 42 Sudoeste 0 -- -- 75
2018-11-10 14:00:00 14.4 17 Sudoeste 37 Sur 0 -- -- 74
2018-11-10 13:00:00 13.3 21 Sudoeste 44 Sudoeste 0 -- -- 78
2018-11-10 12:00:00 13.4 20 Sudoeste 41 Sudoeste 0 -- -- 78
2018-11-10 11:00:00 11.6 19 Sudoeste 36 Sur 0 -- -- 83
2018-11-10 10:00:00 11.1 10 Sudoeste 25 Sudoeste 0 -- -- 86
2018-11-10 09:00:00 10.1 8 Sur 17 Sur 0 -- -- 89
2018-11-10 08:00:00 9.9 9 Sudoeste 19 Sur 0 -- -- 88
2018-11-10 07:00:00 9.5 6 Sudoeste 15 Sur 0 -- -- 92
2018-11-10 06:00:00 9.5 12 Sur 20 Sur 0 -- -- 90
2018-11-10 05:00:00 9.5 11 Sur 23 Sur 0 -- -- 90
2018-11-10 04:00:00 9.5 10 Sudoeste 26 Sudoeste 0 -- -- 89
2018-11-10 03:00:00 9.6 13 Sudoeste 28 Sudoeste 0 -- -- 87
2018-11-10 02:00:00 9.6 10 Sudoeste 23 Sudoeste 0 -- -- 86
2018-11-10 01:00:00 9.5 8 Sudoeste 19 Sur 0 -- -- 86
2018-11-10 00:00:00 9.4 9 Sur 19 Sudoeste 0 -- -- 84
2018-11-09 23:00:00 9.6 11 Sur 21 Sur 0 -- -- 81
2018-11-09 22:00:00 9.4 5 Sur 15 Sur 0 -- -- 82
2018-11-09 21:00:00 9.4 8 Sudoeste 14 Sur 0 -- -- 80
2018-11-09 20:00:00 9.1 5 Sur 15 Sudoeste 0 -- -- 76
2018-11-09 19:00:00 9.5 10 Oeste 27 Oeste 0 -- -- 73
2018-11-09 18:00:00 10 16 Oeste 27 Oeste 0 -- -- 68
2018-11-09 17:00:00 11.7 18 Oeste 33 Oeste 0 -- -- 57
2018-11-09 16:00:00 12.2 18 Oeste 31 Oeste 0 -- -- 58
2018-11-09 15:00:00 11.8 18 Oeste 36 Oeste 0 -- -- 57
2018-11-09 14:00:00 11.8 16 Oeste 31 Oeste 0 -- -- 59
2018-11-09 13:00:00 11 21 Oeste 34 Oeste 0 -- -- 62
2018-11-09 12:00:00 10 15 Oeste 31 Oeste 0 -- -- 65
2018-11-09 11:00:00 9 18 Oeste 28 Oeste 0 -- -- 75
2018-11-09 10:00:00 7.6 15 Oeste 24 Oeste 0 -- -- 78
2018-11-09 09:00:00 5.8 9 Oeste 18 Oeste 0 -- -- 85
2018-11-09 08:00:00 4.9 10 Oeste 20 Oeste 0 -- -- 88
2018-11-09 07:00:00 4.8 10 Oeste 20 Oeste 0 -- -- 89
2018-11-09 06:00:00 4.8 14 Oeste 24 Oeste 0 -- -- 89
2018-11-09 05:00:00 5.1 14 Oeste 22 Oeste 0 -- -- 87
2018-11-09 04:00:00 5.4 10 Oeste 27 Oeste 0 -- -- 87
2018-11-09 03:00:00 5.7 16 Oeste 27 Oeste 0 -- -- 87
2018-11-09 02:00:00 6.1 9 Oeste 27 Oeste 0 -- -- 86
2018-11-09 01:00:00 6.7 11 Oeste 25 Oeste 0 -- -- 83
2018-11-09 00:00:00 7.5 13 Oeste 23 Oeste 0 -- -- 80
2018-11-08 23:00:00 8.1 7 Sudoeste 40 Sudoeste 0 -- -- 76
2018-11-08 22:00:00 8.5 18 Sudoeste 38 Sudoeste 0.2 -- -- 84
2018-11-08 21:00:00 9.6 12 Oeste 24 Oeste 0.2 -- -- 93
2018-11-08 20:00:00 9.8 11 Oeste 20 Oeste 0.2 -- -- 95
2018-11-08 19:00:00 9.9 5 Sudoeste 13 Oeste 0 -- -- 96
2018-11-08 18:00:00 10.6 5 Noroeste 12 Sudoeste 4 -- -- 94
2018-11-08 17:00:00 11.2 6 Sudeste 24 Sudeste 1 -- -- 90
2018-11-08 16:00:00 12 11 Sur 24 Sur 0 -- -- 82
2018-11-08 15:00:00 12.7 14 Sur 27 Sudeste 0 -- -- 76
2018-11-08 14:00:00 13.4 12 Sur 25 Sur 0 -- -- 70
2018-11-08 13:00:00 12.9 12 Sur 28 Sudeste 0 -- -- 71
2018-11-08 12:00:00 12.4 10 Sudeste 23 Sudeste 0 -- -- 76
2018-11-08 11:00:00 9.9 8 Sudeste 23 Sur 0 -- -- 86
2018-11-08 10:00:00 8.2 7 Sudeste 15 Sudeste 0 -- -- 94
2018-11-08 09:00:00 7.1 7 Sur 15 Sur 0 -- -- 95
2018-11-08 08:00:00 7 3 Sur 9 Sur 0 -- -- 96
2018-11-08 07:00:00 6.4 5 Sur 9 Sudeste 0 -- -- 97
2018-11-08 06:00:00 5.6 6 Sudeste 18 Sudeste 0 -- -- 96
2018-11-08 05:00:00 6 8 Sur 16 Sur 0 -- -- 94
2018-11-08 04:00:00 6.3 7 Sur 12 Sudeste 0 -- -- 93
2018-11-08 03:00:00 6 2 Sudeste 10 Sudeste 0 -- -- 93
2018-11-08 02:00:00 6.7 4 Sur 8 Sudeste 0 -- -- 92
2018-11-08 01:00:00 7.1 5 Sudeste 8 Este 0 -- -- 91
2018-11-08 00:00:00 7.6 4 Sur 9 Sudeste 0 -- -- 90
2018-11-07 23:00:00 8.3 5 Sudeste 8 Sudeste 0 -- -- 89
2018-11-07 22:00:00 8.9 3 Este 8 Sur 0 -- -- 87
2018-11-07 21:00:00 9.6 3 Sur 9 Sudoeste 0 -- -- 86
2018-11-07 20:00:00 10.2 5 Sudoeste 10 Sudoeste 0 -- -- 82
2018-11-07 19:00:00 11.2 4 Sudoeste 8 Sudoeste 0 -- -- 78
2018-11-07 18:00:00 12.5 4 Sudoeste 14 Sudoeste 0 -- -- 70
2018-11-07 17:00:00 13.5 8 Oeste 21 Oeste 0 -- -- 63
2018-11-07 16:00:00 14.6 8 Sudoeste 17 Sudoeste 0 -- -- 63
2018-11-07 15:00:00 13 7 Sudoeste 21 Oeste 0 -- -- 73
2018-11-07 14:00:00 12.3 15 Oeste 27 Oeste 0 -- -- 78
2018-11-07 13:00:00 11.4 15 Oeste 27 Sudoeste 0.4 -- -- 88
2018-11-07 12:00:00 11.8 16 Sudoeste 29 Sudoeste 0 -- -- 85
2018-11-07 11:00:00 11.4 12 Sudoeste 25 Sur 0 -- -- 84
2018-11-07 10:00:00 10.6 11 Sur 26 Sur 0 -- -- 87
2018-11-07 09:00:00 10.4 15 Sur 37 Sur 0 -- -- 83
2018-11-07 08:00:00 10.1 15 Sudoeste 29 Sudoeste 0 -- -- 83
2018-11-07 07:00:00 9.8 12 Sudoeste 27 Sur 0 -- -- 83
2018-11-07 06:00:00 9.4 13 Sur 25 Sur 0 -- -- 82
2018-11-07 05:00:00 9.3 5 Sur 23 Sur 0 -- -- 79
2018-11-07 04:00:00 9.4 7 Sur 14 Sudeste 0 -- -- 81
2018-11-07 03:00:00 8.9 2 Norte 7 Sudeste 0 -- -- 85
2018-11-07 02:00:00 9 3 Sur 15 Sudeste 0 -- -- 84
2018-11-07 01:00:00 8.9 6 Sur 13 Sur 0 -- -- 83
2018-11-07 00:00:00 8.9 7 Sur 15 Sudeste 0 -- -- 79
2018-11-06 23:00:00 8.7 5 Sur 12 Sur 0 -- -- 80
2018-11-06 22:00:00 8.4 5 Sur 15 Sur 0 -- -- 80
2018-11-06 21:00:00 9.3 7 Sudoeste 12 Sur 0 -- -- 76
2018-11-06 20:00:00 9.3 3 Sur 10 Sur 0 -- -- 77
2018-11-06 19:00:00 9.6 5 Sudoeste 21 Sudoeste 0 -- -- 76
2018-11-06 18:00:00 9.9 11 Sudoeste 29 Sudoeste 0 -- -- 73
2018-11-06 17:00:00 10.1 12 Sudoeste 25 Sudoeste 0 -- -- 74
2018-11-06 16:00:00 10.4 14 Sudoeste 27 Sudoeste 0 -- -- 70
2018-11-06 15:00:00 10.3 15 Oeste 26 Oeste 0 -- -- 66
2018-11-06 14:00:00 10.6 12 Oeste 27 Oeste 0 -- -- 64
2018-11-06 13:00:00 10.1 14 Oeste 31 Oeste 0 -- -- 66
2018-11-06 12:00:00 9.7 17 Oeste 30 Oeste 0 -- -- 66
2018-11-06 11:00:00 9.3 12 Sudoeste 23 Sudoeste 0 -- -- 74
2018-11-06 10:00:00 7.3 5 Sur 12 Sur 0 -- -- 80
2018-11-06 09:00:00 6.1 4 Sur 13 Sudoeste 0 -- -- 82
2018-11-06 08:00:00 5.3 6 Sur 13 Sudoeste 0 -- -- 84
2018-11-06 07:00:00 4.4 5 Sudeste 20 Sudoeste 0 -- -- 88
2018-11-06 06:00:00 5.1 10 Sudoeste 19 Sudoeste 0 -- -- 84
2018-11-06 05:00:00 4.9 5 Sur 15 Sur 0 -- -- 87
2018-11-06 04:00:00 5.6 6 Sur 17 Sudoeste 0 -- -- 85
2018-11-06 03:00:00 6.5 13 Sudoeste 24 Sudoeste 0 -- -- 79
2018-11-06 02:00:00 6.2 9 Sudoeste 18 Sudoeste 0 -- -- 84
2018-11-06 01:00:00 6.4 7 Sudoeste 26 Sudoeste 0 -- -- 79
2018-11-06 00:00:00 6.8 12 Sudoeste 22 Sudoeste 0 -- -- 82
2018-11-05 23:00:00 7.3 10 Sudoeste 23 Sudoeste 0 -- -- 78
2018-11-05 22:00:00 8 13 Sudoeste 28 Oeste 0 -- -- 75
2018-11-05 21:00:00 8.2 12 Oeste 30 Oeste 0 -- -- 79
2018-11-05 20:00:00 8.3 18 Oeste 34 Oeste 0 -- -- 79
2018-11-05 19:00:00 8.1 15 Oeste 33 Oeste 0.2 -- -- 81
2018-11-05 18:00:00 8.2 15 Oeste 30 Oeste 0 -- -- 82
2018-11-05 17:00:00 7.9 12 Sudoeste 33 Oeste 1.6 -- -- 90
2018-11-05 16:00:00 8.6 19 Sudoeste 35 Sudoeste 0 -- -- 79
2018-11-05 15:00:00 10.3 16 Sudoeste 34 Sudoeste 0 -- -- 74
2018-11-05 14:00:00 8.7 19 Sudoeste 33 Sudoeste 0 -- -- 78
2018-11-05 13:00:00 9.8 18 Sudoeste 37 Sudoeste 0 -- -- 70
2018-11-05 12:00:00 9.9 22 Sudoeste 39 Sudoeste 0 -- -- 67
2018-11-05 11:00:00 10.1 16 Sudoeste 32 Sudoeste 0 -- -- 72
2018-11-05 10:00:00 8.3 14 Sudoeste 27 Sudoeste 0 -- -- 82
2018-11-05 09:00:00 8.6 10 Sudoeste 30 Sudoeste 0 -- -- 87
2018-11-05 08:00:00 8.7 6 Sudoeste 37 Sudoeste 0.2 -- -- 82
2018-11-05 07:00:00 8.3 8 Oeste 23 Oeste 2.6 -- -- 94
2018-11-05 06:00:00 9 8 Sur 23 Sur 1.2 -- -- 95
2018-11-05 05:00:00 9.3 12 Sur 34 Sur 0.8 -- -- 93
2018-11-05 04:00:00 9.9 10 Sur 24 Sur 0.6 -- -- 91
2018-11-05 03:00:00 10.3 10 Sudeste 21 Sudeste 1.8 -- -- 89
2018-11-05 02:00:00 11.2 5 Sur 18 Sur 0 -- -- 78
2018-11-05 01:00:00 11.2 10 Sur 21 Sur 0 -- -- 78
2018-11-05 00:00:00 11.5 6 Sudeste 12 Sur 0 -- -- 81
2018-11-04 23:00:00 11 3 Sur 8 Sur 0 -- -- 90
2018-11-04 22:00:00 10.5 4 Nordeste 10 Nordeste 0 -- -- 91
2018-11-04 21:00:00 11.6 7 Norte 12 Norte 0 -- -- 82
2018-11-04 20:00:00 12.2 5 Sudoeste 10 Sudoeste 0 -- -- 77
2018-11-04 19:00:00 12.1 5 Sudoeste 17 Sur 0 -- -- 74
2018-11-04 18:00:00 12.8 10 Sur 23 Oeste 0 -- -- 70
2018-11-04 17:00:00 14.1 12 Sudoeste 22 Sudoeste 0 -- -- 66
2018-11-04 16:00:00 16.8 8 Noroeste 18 Oeste 0 -- -- 62
2018-11-04 15:00:00 18.1 3 Sudeste 12 Oeste 0 -- -- 53
2018-11-04 14:00:00 17.9 3 Oeste 12 Oeste 0 -- -- 54
2018-11-04 13:00:00 17 5 Sudoeste 10 Sudoeste 0 -- -- 58
2018-11-04 12:00:00 15.6 5 Sudoeste 11 Sur 0 -- -- 63
2018-11-04 11:00:00 13.8 4 Sudoeste 10 Sudoeste 0 -- -- 69
2018-11-04 10:00:00 10.7 4 Sur 9 Sudeste 0 -- -- 79
2018-11-04 09:00:00 6.8 4 Sur 10 Sudeste 0 -- -- 89
2018-11-04 08:00:00 4.3 4 Sur 7 Sur 0 -- -- 91
2018-11-04 07:00:00 4.4 2 Sur 7 Sudeste 0 -- -- 88
2018-11-04 06:00:00 4.4 4 Sudeste 6 Sur 0 -- -- 88
2018-11-04 05:00:00 4.9 0 Calma 5 Sur 0 -- -- 86
2018-11-04 04:00:00 6.4 3 Sudeste 9 Sudeste 0 -- -- 85
2018-11-04 03:00:00 6.8 7 Sudeste 10 Sur 0 -- -- 79
2018-11-04 02:00:00 6 5 Sur 9 Sudeste 0 -- -- 72
2018-11-04 01:00:00 6.3 5 Sur 10 Sudeste 0 -- -- 68
2018-11-04 00:00:00 7.5 6 Sur 9 Sudeste 0 -- -- 62
2018-11-03 23:00:00 7.5 5 Sur 9 Sur 0 -- -- 61
2018-11-03 22:00:00 8.4 4 Sudeste 8 Sur 0 -- -- 57
2018-11-03 21:00:00 9.3 2 Sudeste 9 Sudeste 0 -- -- 55
2018-11-03 20:00:00 10.9 4 Sudoeste 7 Sur 0 -- -- 47
2018-11-03 19:00:00 12.6 3 Sudoeste 9 Oeste 0 -- -- 40
2018-11-03 18:00:00 15.4 6 Oeste 9 Oeste 0 -- -- 30
2018-11-03 17:00:00 17.3 6 Oeste 13 Oeste 0 -- -- 27
2018-11-03 16:00:00 17.5 7 Oeste 13 Oeste 0 -- -- 29
2018-11-03 15:00:00 16.9 6 Oeste 11 Oeste 0 -- -- 33
2018-11-03 14:00:00 16.4 4 Noroeste 10 Nordeste 0 -- -- 33
2018-11-03 13:00:00 15.5 4 Sudoeste 10 Nordeste 0 -- -- 32
2018-11-03 12:00:00 15.1 3 Sudeste 6 Sudoeste 0 -- -- 36
2018-11-03 11:00:00 13.3 3 Sur 9 Sur 0 -- -- 48
2018-11-03 10:00:00 10.5 5 Sur 10 Sur 0 -- -- 65
2018-11-03 09:00:00 7.7 4 Sur 7 Sudeste 0 -- -- 78
2018-11-03 08:00:00 5 3 Sudeste 5 Sudeste 0 -- -- 90
2018-11-03 07:00:00 5.2 2 Sudeste 7 Sur 0 -- -- 89
2018-11-03 06:00:00 5.2 5 Sur 8 Sur 0 -- -- 90
2018-11-03 05:00:00 6.2 3 Sudeste 4 Sudeste 0 -- -- 87
2018-11-03 04:00:00 6.9 2 Este 4 Nordeste 0 -- -- 86
2018-11-03 03:00:00 6.6 0 Calma 4 Sur 0 -- -- 87
2018-11-03 02:00:00 7.2 0 Calma 3 Sudoeste 0 -- -- 84
2018-11-03 01:00:00 7.7 3 Sudoeste 3 Sudoeste 0 -- -- 85
2018-11-03 00:00:00 8 0 Calma 4 Sudoeste 0 -- -- 84
2018-11-02 23:00:00 9.5 0 Calma 4 Nordeste 0 -- -- 81
2018-11-02 22:00:00 10.6 3 Oeste 9 Norte 0 -- -- 77
2018-11-02 21:00:00 12.3 5 Norte 14 Nordeste 0 -- -- 77
2018-11-02 20:00:00 12.9 8 Noroeste 13 Noroeste 0 -- -- 80
2018-11-02 19:00:00 14.2 9 Norte 14 Noroeste 0 -- -- 75
2018-11-02 18:00:00 15.9 12 Noroeste 29 Noroeste 0 -- -- 65
2018-11-02 17:00:00 17.1 18 Noroeste 32 Noroeste 0 -- -- 60
2018-11-02 16:00:00 17.8 19 Noroeste 34 Noroeste 0 -- -- 58
2018-11-02 15:00:00 16.8 14 Noroeste 35 Noroeste 0 -- -- 62
2018-11-02 14:00:00 17.5 18 Noroeste 34 Oeste 0 -- -- 61
2018-11-02 13:00:00 17.1 17 Noroeste 29 Oeste 0 -- -- 60
2018-11-02 12:00:00 15.6 19 Oeste 30 Oeste 0 -- -- 69
2018-11-02 11:00:00 14.7 15 Oeste 27 Oeste 0 -- -- 71
2018-11-02 10:00:00 13 9 Oeste 17 Oeste 0 -- -- 77
2018-11-02 09:00:00 11.2 9 Oeste 13 Oeste 0 -- -- 81
2018-11-02 08:00:00 10.6 3 Sudoeste 12 Oeste 0 -- -- 81
2018-11-02 07:00:00 10.1 2 Sudeste 14 Oeste 0 -- -- 82
2018-11-02 06:00:00 10.4 6 Oeste 18 Sudoeste 0 -- -- 79
2018-11-02 05:00:00 9.5 2 Sudoeste 7 Sudoeste 0 -- -- 76
2018-11-02 04:00:00 8.4 4 Sur 9 Sur 0 -- -- 77
2018-11-02 03:00:00 8.6 5 Sur 12 Sudoeste 0 -- -- 76
2018-11-02 02:00:00 8.8 4 Sudoeste 17 Sudoeste 0 -- -- 75
2018-11-02 01:00:00 8.1 4 Sudoeste 11 Sur 0 -- -- 80
2018-11-02 00:00:00 8.2 4 Sudoeste 8 Sudoeste 0 -- -- 80
2018-11-01 23:00:00 8.3 5 Sudoeste 10 Oeste 0 -- -- 80
2018-11-01 22:00:00 9.1 6 Sudoeste 11 Sudoeste 0 -- -- 76
2018-11-01 21:00:00 9.4 4 Sudoeste 8 Sudoeste 0 -- -- 79
2018-11-01 20:00:00 10.1 5 Oeste 13 Oeste 0 -- -- 76
2018-11-01 19:00:00 11.2 5 Oeste 11 Noroeste 0 -- -- 69
2018-11-01 18:00:00 13.6 3 Sudoeste 10 Oeste 0 -- -- 57
2018-11-01 17:00:00 14.3 6 Oeste 14 Oeste 0 -- -- 49
2018-11-01 16:00:00 15.1 3 Sudoeste 12 Oeste 0 -- -- 49
2018-11-01 15:00:00 14.4 4 Noroeste 15 Oeste 0 -- -- 54
2018-11-01 14:00:00 13.1 6 Oeste 17 Norte 0 -- -- 60
2018-11-01 13:00:00 12.3 9 Norte 19 Noroeste 0 -- -- 62
2018-11-01 12:00:00 12 12 Noroeste 19 Noroeste 0 -- -- 63
2018-11-01 11:00:00 11.1 8 Noroeste 14 Noroeste 0 -- -- 69
2018-11-01 10:00:00 10.4 3 Sudoeste 7 Sudoeste 0 -- -- 72
2018-11-01 09:00:00 6.7 3 Sudeste 7 Sudeste 0 -- -- 89
2018-11-01 08:00:00 3.9 5 Sur 8 Sur 0 -- -- 92
2018-11-01 07:00:00 4 3 Sur 5 Sur 0 -- -- 93
2018-11-01 06:00:00 4.2 2 Sudoeste 6 Sudeste 0 -- -- 93
2018-11-01 05:00:00 4.2 3 Sur 8 Sur 0 -- -- 92
2018-11-01 04:00:00 4.8 3 Sur 9 Oeste 0 -- -- 91
2018-11-01 03:00:00 5.2 7 Oeste 12 Oeste 0 -- -- 91
2018-11-01 02:00:00 4.8 2 Sur 8 Sur 0 -- -- 91
2018-11-01 01:00:00 5.5 4 Sudoeste 9 Sudoeste 0 -- -- 90
2018-11-01 00:00:00 5.4 3 Sur 10 Sur 0 -- -- 90
2018-10-31 23:00:00 6.2 6 Sur 10 Sur 0 -- -- 87
2018-10-31 22:00:00 7.1 2 Sudoeste 6 Sudoeste 0 -- -- 85
2018-10-31 21:00:00 7.6 0 Calma 6 Sudoeste 0 -- -- 83
2018-10-31 20:00:00 8.1 2 Sudoeste 12 Sudoeste 0 -- -- 81
2018-10-31 19:00:00 8.4 5 Sudoeste 25 Sudoeste 0 -- -- 78
2018-10-31 18:00:00 8.9 10 Sudoeste 25 Sudoeste 0 -- -- 75
2018-10-31 17:00:00 9.5 13 Sudoeste 26 Sudoeste 0 -- -- 72
2018-10-31 16:00:00 9.8 13 Sudoeste 27 Sudoeste 0 -- -- 70
2018-10-31 15:00:00 9.5 13 Sudoeste 28 Sudoeste 0 -- -- 73
2018-10-31 14:00:00 8.9 17 Sudoeste 35 Sudoeste 0 -- -- 77
2018-10-31 13:00:00 8.7 13 Sudoeste 27 Sur 0 -- -- 80
2018-10-31 12:00:00 8.9 14 Oeste 23 Sudoeste 0 -- -- 81
2018-10-31 11:00:00 7.2 11 Oeste 24 Oeste 0 -- -- 90
2018-10-31 10:00:00 6.3 14 Oeste 24 Oeste 0 -- -- 95
2018-10-31 09:00:00 6.1 9 Oeste 22 Oeste 0.8 -- -- 96
2018-10-31 08:00:00 6 9 Oeste 17 Oeste 1 -- -- 96
2018-10-31 07:00:00 6.1 6 Sudoeste 12 Sudoeste 0.2 -- -- 95
2018-10-31 06:00:00 6.2 0 Calma 5 Sudoeste 0 -- -- 95
2018-10-31 05:00:00 6.2 4 Sudoeste 11 Sudoeste 0 -- -- 95
2018-10-31 04:00:00 6 5 Sudoeste 15 Sudoeste 0 -- -- 95
2018-10-31 03:00:00 6.3 6 Sudoeste 13 Sudoeste 0 -- -- 96
2018-10-31 02:00:00 6 3 Sur 7 Sudoeste 0 -- -- 96
2018-10-31 01:00:00 5.9 3 Sudoeste 9 Sur 0.4 -- -- 95
2018-10-31 00:00:00 5.8 3 Sudoeste 20 Oeste 0.8 -- -- 96
2018-10-30 23:00:00 6.2 13 Oeste 24 Oeste 2.4 -- -- 95
2018-10-30 22:00:00 7.4 8 Sur 14 Sudoeste 0.4 -- -- 94
2018-10-30 21:00:00 7.6 5 Sudeste 23 Sudeste 0.4 -- -- 93
2018-10-30 20:00:00 7.8 10 Sudeste 22 Sudeste 0.2 -- -- 94
2018-10-30 19:00:00 7.9 9 Sudeste 26 Sur 0.6 -- -- 94
2018-10-30 18:00:00 8.2 10 Sur 29 Sur 0 -- -- 93
2018-10-30 17:00:00 8.5 14 Sur 28 Sudeste 0.2 -- -- 94
2018-10-30 16:00:00 9.4 17 Sur 29 Norte 0 -- -- 92
2018-10-30 15:00:00 7.9 15 Sur 33 Sudeste 0.8 -- -- 92
2018-10-30 14:00:00 7.4 8 Sudeste 28 Sudeste 0.4 -- -- 91
2018-10-30 13:00:00 6.8 14 Sudeste 30 Sudeste 1.8 -- -- 92
2018-10-30 12:00:00 6.7 10 Sudeste 20 Sudeste 1 -- -- 91
2018-10-30 11:00:00 6.6 6 Sur 18 Sur 0.4 -- -- 88
2018-10-30 10:00:00 6.3 8 Sur 22 Sur 0.4 -- -- 86
2018-10-30 09:00:00 6.5 12 Sur 28 Sudoeste 0 -- -- 81
2018-10-30 08:00:00 -- -- -- -- -- -- -- -- --
2018-10-30 07:00:00 -- -- -- -- -- -- -- -- --
2018-10-30 06:00:00 -- -- -- -- -- -- -- -- --
2018-10-30 05:00:00 -- -- -- -- -- -- -- -- --
2018-10-30 04:00:00 -- -- -- -- -- -- -- -- --
2018-10-30 03:00:00 -- -- -- -- -- -- -- -- --
2018-10-30 02:00:00 -- -- -- -- -- -- -- -- --
2018-10-30 01:00:00 -- -- -- -- -- -- -- -- --
2018-10-30 00:00:00 -- -- -- -- -- -- -- -- --
2018-10-29 23:00:00 -- -- -- -- -- -- -- -- --
2018-10-29 22:00:00 -- -- -- -- -- -- -- -- --
2018-10-29 21:00:00 -- -- -- -- -- -- -- -- --
2018-10-29 20:00:00 -- -- -- -- -- -- -- -- --
2018-10-29 19:00:00 -- -- -- -- -- -- -- -- --
2018-10-29 18:00:00 -- -- -- -- -- -- -- -- --
2018-10-29 17:00:00 -- -- -- -- -- -- -- -- --
2018-10-29 16:00:00 -- -- -- -- -- -- -- -- --
2018-10-29 15:00:00 -- -- -- -- -- -- -- -- --
2018-10-29 14:00:00 -- -- -- -- -- -- -- -- --
2018-10-29 13:00:00 -- -- -- -- -- -- -- -- --
2018-10-29 12:00:00 -- -- -- -- -- -- -- -- --
2018-10-29 11:00:00 -- -- -- -- -- -- -- -- --
2018-10-29 10:00:00 -- -- -- -- -- -- -- -- --
2018-10-29 09:00:00 -- -- -- -- -- -- -- -- --
2018-10-29 08:00:00 -- -- -- -- -- -- -- -- --
2018-10-29 07:00:00 -- -- -- -- -- -- -- -- --
2018-10-29 06:00:00 -- -- -- -- -- -- -- -- --
2018-10-29 05:00:00 -- -- -- -- -- -- -- -- --
2018-10-29 04:00:00 -- -- -- -- -- -- -- -- --
2018-10-29 03:00:00 -- -- -- -- -- -- -- -- --
2018-10-29 02:00:00 -- -- -- -- -- -- -- -- --
2018-10-29 01:00:00 -- -- -- -- -- -- -- -- --
2018-10-29 00:00:00 -- -- -- -- -- -- -- -- --
2018-10-28 23:00:00 -- -- -- -- -- -- -- -- --
2018-10-28 22:00:00 -- -- -- -- -- -- -- -- --
2018-10-28 21:00:00 -- -- -- -- -- -- -- -- --
2018-10-28 20:00:00 -- -- -- -- -- -- -- -- --
2018-10-28 19:00:00 -- -- -- -- -- -- -- -- --
2018-10-28 18:00:00 -- -- -- -- -- -- -- -- --
2018-10-28 17:00:00 -- -- -- -- -- -- -- -- --
2018-10-28 16:00:00 -- -- -- -- -- -- -- -- --
2018-10-28 15:00:00 -- -- -- -- -- -- -- -- --
2018-10-28 14:00:00 -- -- -- -- -- -- -- -- --
2018-10-28 13:00:00 -- -- -- -- -- -- -- -- --
2018-10-28 12:00:00 -- -- -- -- -- -- -- -- --
2018-10-28 11:00:00 -- -- -- -- -- -- -- -- --
2018-10-28 10:00:00 -- -- -- -- -- -- -- -- --
2018-10-28 09:00:00 -- -- -- -- -- -- -- -- --
2018-10-28 08:00:00 -- -- -- -- -- -- -- -- --
2018-10-28 07:00:00 -- -- -- -- -- -- -- -- --
2018-10-28 06:00:00 -- -- -- -- -- -- -- -- --
2018-10-28 05:00:00 -- -- -- -- -- -- -- -- --
2018-10-28 04:00:00 -- -- -- -- -- -- -- -- --
2018-10-28 03:00:00 -- -- -- -- -- -- -- -- --
2018-10-28 02:00:00 -- -- -- -- -- -- -- -- --
2018-10-28 01:00:00 -- -- -- -- -- -- -- -- --
2018-10-28 00:00:00 -- -- -- -- -- -- -- -- --
2018-10-27 23:00:00 -- -- -- -- -- -- -- -- --
2018-10-27 22:00:00 -- -- -- -- -- -- -- -- --
2018-10-27 21:00:00 -- -- -- -- -- -- -- -- --
2018-10-27 20:00:00 -- -- -- -- -- -- -- -- --
2018-10-27 19:00:00 -- -- -- -- -- -- -- -- --
2018-10-27 18:00:00 -- -- -- -- -- -- -- -- --
2018-10-27 17:00:00 -- -- -- -- -- -- -- -- --
2018-10-27 16:00:00 -- -- -- -- -- -- -- -- --
2018-10-27 15:00:00 -- -- -- -- -- -- -- -- --
2018-10-27 14:00:00 -- -- -- -- -- -- -- -- --
2018-10-27 13:00:00 -- -- -- -- -- -- -- -- --
2018-10-27 12:00:00 -- -- -- -- -- -- -- -- --
2018-10-27 11:00:00 -- -- -- -- -- -- -- -- --
2018-10-27 10:00:00 -- -- -- -- -- -- -- -- --
2018-10-27 09:00:00 -- -- -- -- -- -- -- -- --
2018-10-27 08:00:00 -- -- -- -- -- -- -- -- --
2018-10-27 07:00:00 -- -- -- -- -- -- -- -- --
2018-10-27 06:00:00 -- -- -- -- -- -- -- -- --
2018-10-27 05:00:00 -- -- -- -- -- -- -- -- --
2018-10-27 04:00:00 -- -- -- -- -- -- -- -- --
2018-10-27 03:00:00 -- -- -- -- -- -- -- -- --
2018-10-27 02:00:00 -- -- -- -- -- -- -- -- --
2018-10-27 01:00:00 -- -- -- -- -- -- -- -- --
2018-10-27 00:00:00 -- -- -- -- -- -- -- -- --
2018-10-26 23:00:00 -- -- -- -- -- -- -- -- --
2018-10-26 22:00:00 -- -- -- -- -- -- -- -- --
2018-10-26 21:00:00 -- -- -- -- -- -- -- -- --
2018-10-26 20:00:00 -- -- -- -- -- -- -- -- --
2018-10-26 19:00:00 -- -- -- -- -- -- -- -- --
2018-10-26 18:00:00 -- -- -- -- -- -- -- -- --
2018-10-26 17:00:00 -- -- -- -- -- -- -- -- --
2018-10-26 16:00:00 -- -- -- -- -- -- -- -- --
2018-10-26 15:00:00 -- -- -- -- -- -- -- -- --
2018-10-26 14:00:00 -- -- -- -- -- -- -- -- --
2018-10-26 13:00:00 -- -- -- -- -- -- -- -- --
2018-10-26 12:00:00 -- -- -- -- -- -- -- -- --
2018-10-26 11:00:00 -- -- -- -- -- -- -- -- --
2018-10-26 10:00:00 -- -- -- -- -- -- -- -- --
2018-10-26 09:00:00 10.9 0 Calma 6 Sur 0 -- -- 78
2018-10-26 08:00:00 10.6 0 Calma 8 Sur 0 -- -- 80
2018-10-26 07:00:00 10.7 7 Sur 9 Sur 0 -- -- 80
2018-10-26 06:00:00 10.6 0 Calma 6 Sudeste 0 -- -- 78
2018-10-26 05:00:00 10.9 0 Calma 5 Sur 0 -- -- 80
2018-10-26 04:00:00 10.9 2 Sur 6 Sur 0 -- -- 80
2018-10-26 03:00:00 12.4 3 Sur 6 Sur 0 -- -- 75
2018-10-26 02:00:00 13.3 4 Sudeste 6 Sudeste 0 -- -- 72
2018-10-26 01:00:00 13.8 3 Sur 6 Sur 0 -- -- 69
2018-10-26 00:00:00 14 2 Sur 6 Sudoeste 0 -- -- 67
2018-10-25 23:00:00 14.7 4 Sur 5 Sur 0 -- -- 65
2018-10-25 22:00:00 15.9 0 Calma 10 Sur 0 -- -- 60
2018-10-25 21:00:00 17.3 2 Oeste 6 Oeste 0 -- -- 57
2018-10-25 20:00:00 18.1 0 Calma 8 Norte 0 -- -- 54
2018-10-25 19:00:00 21.1 5 Norte 15 Noroeste 0 -- -- 46
2018-10-25 18:00:00 23.5 7 Norte 15 Nordeste 0 -- -- 41
2018-10-25 17:00:00 24 5 Norte 17 Norte 0 -- -- 40
2018-10-25 16:00:00 24.1 8 Nordeste 14 Nordeste 0 -- -- 39
2018-10-25 15:00:00 23.7 6 Norte 12 Nordeste 0 -- -- 37
2018-10-25 14:00:00 23.6 4 Oeste 9 Oeste 0 -- -- 37
2018-10-25 13:00:00 22.4 3 Oeste 8 Noroeste 0 -- -- 44
2018-10-25 12:00:00 21.5 2 Sudoeste 5 Sur 0 -- -- 49
2018-10-25 11:00:00 19.7 0 Calma 6 Sudeste 0 -- -- 57
2018-10-25 10:00:00 13.8 4 Sur 7 Sur 0 -- -- 75
2018-10-25 09:00:00 9.3 5 Sur 8 Sur 0 -- -- 86
2018-10-25 08:00:00 9.1 0 Calma 4 Sur 0 -- -- 85
2018-10-25 07:00:00 10.1 3 Sur 6 Sur 0 -- -- 81
2018-10-25 06:00:00 10.7 2 Sudeste 6 Sur 0 -- -- 78
2018-10-25 05:00:00 10.7 3 Sur 9 Sudeste 0 -- -- 80
2018-10-25 04:00:00 10.2 4 Sur 8 Sur 0 -- -- 80
2018-10-25 03:00:00 10.9 2 Sur 4 Sur 0 -- -- 77
2018-10-25 02:00:00 10.7 0 Calma 7 Sudeste 0 -- -- 78
2018-10-25 01:00:00 12.1 5 Sur 9 Sur 0 -- -- 74
2018-10-25 00:00:00 12.4 7 Sur 10 Sur 0 -- -- 72
2018-10-24 23:00:00 13.8 3 Sur 8 Sur 0 -- -- 64
2018-10-24 22:00:00 15 4 Sur 9 Sur 0 -- -- 63
2018-10-24 21:00:00 16.4 0 Calma 4 Noroeste 0 -- -- 52
2018-10-24 20:00:00 17.8 2 Noroeste 7 Noroeste 0 -- -- 45
2018-10-24 19:00:00 21.6 6 Noroeste 12 Noroeste 0 -- -- 39
2018-10-24 18:00:00 23.6 7 Oeste 13 Noroeste 0 -- -- 31
2018-10-24 17:00:00 24.1 6 Norte 15 Noroeste 0 -- -- 33
2018-10-24 16:00:00 23.3 6 Noroeste 14 Noroeste 0 -- -- 37
2018-10-24 15:00:00 22.6 7 Oeste 16 Norte 0 -- -- 40
2018-10-24 14:00:00 22.1 6 Norte 14 Norte 0 -- -- 48
2018-10-24 13:00:00 21.3 6 Noroeste 12 Norte 0 -- -- 54
2018-10-24 12:00:00 19.9 8 Oeste 13 Oeste 0 -- -- 59
2018-10-24 11:00:00 18.2 2 Sur 5 Sur 0 -- -- 66
2018-10-24 10:00:00 14.1 0 Calma 2 Sudoeste 0 -- -- 83
2018-10-24 09:00:00 9.2 0 Calma 6 Sudeste 0 -- -- 88
2018-10-24 08:00:00 10.2 5 Sudeste 8 Sudeste 0 -- -- 89
2018-10-24 07:00:00 10.1 6 Sudeste 8 Sudeste 0 -- -- 89
2018-10-24 06:00:00 10.4 2 Sur 6 Sur 0 -- -- 89
2018-10-24 05:00:00 11 4 Sur 5 Sur 0 -- -- 88
2018-10-24 04:00:00 11 2 Sur 8 Sur 0 -- -- 86
2018-10-24 03:00:00 12.5 4 Sur 7 Sur 0 -- -- 82
2018-10-24 02:00:00 12.4 3 Sur 10 Sur 0 -- -- 82
2018-10-24 01:00:00 12.9 8 Sur 11 Sur 0 -- -- 81
2018-10-24 00:00:00 13.2 0 Calma 11 Noroeste 0 -- -- 82
2018-10-23 23:00:00 14 2 Sudoeste 5 Sur 0 -- -- 76
2018-10-23 22:00:00 15.3 0 Calma 9 Noroeste 0 -- -- 73
2018-10-23 21:00:00 16.8 0 Calma 4 Nordeste 0 -- -- 66
2018-10-23 20:00:00 18.5 3 Nordeste 6 Este 0 -- -- 58
2018-10-23 19:00:00 21.5 5 Este 12 Nordeste 0 -- -- 49
2018-10-23 18:00:00 22.8 6 Este 17 Nordeste 0 -- -- 46
2018-10-23 17:00:00 23.2 6 Este 30 Norte 0 -- -- 47
2018-10-23 16:00:00 22.7 8 Este 22 Nordeste 0 -- -- 49
2018-10-23 15:00:00 22.3 9 Nordeste 21 Este 0 -- -- 52
2018-10-23 14:00:00 21.1 5 Este 15 Este 0 -- -- 59
2018-10-23 13:00:00 18.4 8 Este 17 Este 0 -- -- 70
2018-10-23 12:00:00 17.7 6 Este 13 Este 0 -- -- 75
2018-10-23 11:00:00 14.9 6 Este 14 Sudeste 0 -- -- 88
2018-10-23 10:00:00 14 5 Sudeste 12 Sudeste 0 -- -- 93
2018-10-23 09:00:00 13.3 5 Sudeste 13 Este 0 -- -- 94
2018-10-23 08:00:00 13 3 Nordeste 13 Este 0 -- -- 95
2018-10-23 07:00:00 13.1 4 Nordeste 13 Este 0 -- -- 94
2018-10-23 06:00:00 13.5 3 Este 15 Sudeste 0 -- -- 92
2018-10-23 05:00:00 13.4 4 Este 17 Sudeste 0 -- -- 91
2018-10-23 04:00:00 13.9 10 Sudeste 27 Sudeste 0 -- -- 88
2018-10-23 03:00:00 14.3 12 Sudeste 22 Sudeste 0 -- -- 84
2018-10-23 02:00:00 14.6 8 Sudeste 13 Sudeste 0 -- -- 83
2018-10-23 01:00:00 14.4 4 Sur 7 Sur 0 -- -- 75
2018-10-23 00:00:00 14.3 0 Calma 17 Sudeste 0 -- -- 65
2018-10-22 23:00:00 13.9 2 Oeste 3 Oeste 0 -- -- 73
2018-10-22 22:00:00 15.9 0 Calma 3 Norte 0 -- -- 62
2018-10-22 21:00:00 17.1 0 Calma 8 Nordeste 0 -- -- 59
2018-10-22 20:00:00 18.5 4 Norte 10 Norte 0 -- -- 58
2018-10-22 19:00:00 21.7 6 Norte 15 Norte 0 -- -- 47
2018-10-22 18:00:00 23.6 8 Norte 17 Nordeste 0 -- -- 41
2018-10-22 17:00:00 24 5 Norte 15 Norte 0 -- -- 40
2018-10-22 16:00:00 23.4 4 Nordeste 15 Nordeste 0 -- -- 44
2018-10-22 15:00:00 22.1 8 Norte 17 Norte 0 -- -- 49
2018-10-22 14:00:00 20.7 8 Norte 17 Norte 0 -- -- 59
2018-10-22 13:00:00 19.3 7 Norte 15 Noroeste 0 -- -- 68
2018-10-22 12:00:00 19.2 6 Norte 13 Norte 0 -- -- 68
2018-10-22 11:00:00 18.2 0 Calma 6 Sur 0 -- -- 75
2018-10-22 10:00:00 14.7 4 Sudeste 7 Sur 0 -- -- 91
2018-10-22 09:00:00 11.4 0 Calma 3 Nordeste 0 -- -- 95
2018-10-22 08:00:00 12 0 Calma 6 Sudoeste 0 -- -- 95
2018-10-22 07:00:00 11.9 3 Sudoeste 5 Sudoeste 0 -- -- 94
2018-10-22 06:00:00 12.2 0 Calma 4 Sur 0 -- -- 90
2018-10-22 05:00:00 13.5 0 Calma 10 Sur 0 -- -- 90
2018-10-22 04:00:00 13.8 4 Sur 7 Sur 0 -- -- 88
2018-10-22 03:00:00 13.7 2 Sudeste 5 Sudeste 0 -- -- 90
2018-10-22 02:00:00 14.2 4 Sur 9 Sur 0 -- -- 87
2018-10-22 01:00:00 14.9 3 Sudeste 6 Sur 0 -- -- 83
2018-10-22 00:00:00 15.5 3 Norte 16 Noroeste 0 -- -- 78
2018-10-21 23:00:00 15.2 8 Noroeste 20 Oeste 0.2 -- -- 84
2018-10-21 22:00:00 18.1 5 Oeste 17 Este 0 -- -- 70
2018-10-21 21:00:00 19.2 11 Este 22 Este 0 -- -- 66
2018-10-21 20:00:00 19.6 12 Este 23 Este 0 -- -- 64
2018-10-21 19:00:00 20.3 12 Este 27 Este 0 -- -- 61
2018-10-21 18:00:00 21.7 11 Este 23 Este 0 -- -- 56
2018-10-21 17:00:00 22.4 14 Este 28 Este 0 -- -- 56
2018-10-21 16:00:00 22.1 15 Este 30 Este 0 -- -- 58
2018-10-21 15:00:00 21 13 Este 31 Este 0 -- -- 63
2018-10-21 14:00:00 21.1 13 Sudeste 28 Este 0 -- -- 64
2018-10-21 13:00:00 19.5 15 Este 30 Este 0 -- -- 69
2018-10-21 12:00:00 18.8 13 Este 25 Nordeste 0 -- -- 73
2018-10-21 11:00:00 17.8 12 Este 30 Este 0 -- -- 77
2018-10-21 10:00:00 16.1 10 Este 24 Nordeste 0 -- -- 85
2018-10-21 09:00:00 15.1 8 Nordeste 29 Este 0 -- -- 89
2018-10-21 08:00:00 15.2 15 Este 36 Sudeste 0 -- -- 88
2018-10-21 07:00:00 15.3 13 Este 26 Sudeste 0 -- -- 88
2018-10-21 06:00:00 15.4 15 Este 31 Este 0 -- -- 86
2018-10-21 05:00:00 15.3 16 Este 41 Este 0 -- -- 87
2018-10-21 04:00:00 15.4 20 Este 45 Este 0 -- -- 86
2018-10-21 03:00:00 15.5 18 Este 43 Nordeste 0 -- -- 86
2018-10-21 02:00:00 15.7 22 Este 46 Este 0 -- -- 84
2018-10-21 01:00:00 15.7 19 Este 46 Este 0 -- -- 83
2018-10-21 00:00:00 15.9 26 Este 55 Este 0 -- -- 80
2018-10-20 23:00:00 16.1 19 Este 41 Este 0 -- -- 80
2018-10-20 22:00:00 16.4 19 Este 35 Este 0 -- -- 80
2018-10-20 21:00:00 16.7 20 Este 46 Este 0 -- -- 78
2018-10-20 20:00:00 17.2 23 Este 45 Este 0 -- -- 76
2018-10-20 19:00:00 18 22 Este 41 Este 0 -- -- 72
2018-10-20 18:00:00 18.9 19 Este 35 Este 0 -- -- 67
2018-10-20 17:00:00 19.1 15 Este 34 Este 0 -- -- 66
2018-10-20 16:00:00 19.8 18 Este 39 Este 0 -- -- 61
2018-10-20 15:00:00 19.4 19 Este 40 Este 0 -- -- 65
2018-10-20 14:00:00 18.3 15 Este 36 Este 0 -- -- 70
2018-10-20 13:00:00 17.1 20 Este 38 Este 0 -- -- 74
2018-10-20 12:00:00 16.7 15 Este 31 Este 0 -- -- 77
2018-10-20 11:00:00 14.4 9 Nordeste 20 Nordeste 0 -- -- 90
2018-10-20 10:00:00 12.8 5 Nordeste 16 Norte 0 -- -- 95
2018-10-20 09:00:00 12.7 10 Nordeste 37 Este 0 -- -- 90
2018-10-20 08:00:00 13.4 17 Este 37 Este 0 -- -- 86
2018-10-20 07:00:00 13.2 12 Este 32 Este 0 -- -- 90
2018-10-20 06:00:00 13.6 14 Este 36 Este 0 -- -- 89
2018-10-20 05:00:00 13.5 13 Este 26 Sudeste 0 -- -- 92
2018-10-20 04:00:00 13.1 7 Este 26 Este 0 -- -- 89
2018-10-20 03:00:00 13.3 11 Este 22 Este 0 -- -- 91
2018-10-20 02:00:00 13.5 8 Este 19 Este 0 -- -- 92
2018-10-20 01:00:00 13.6 10 Este 18 Este 0 -- -- 93
2018-10-20 00:00:00 13.2 8 Nordeste 17 Nordeste 0 -- -- 97
2018-10-19 23:00:00 13.5 2 Norte 17 Nordeste 0 -- -- 95
2018-10-19 22:00:00 13.9 5 Nordeste 10 Nordeste 0 -- -- 95
2018-10-19 21:00:00 14 3 Norte 10 Norte 0 -- -- 94
2018-10-19 20:00:00 14.4 3 Norte 21 Nordeste 0 -- -- 90
2018-10-19 19:00:00 14.8 10 Nordeste 18 Norte 0.2 -- -- 93
2018-10-19 18:00:00 14.4 8 Norte 13 Noroeste 0 -- -- 94
2018-10-19 17:00:00 14.4 4 Norte 10 Norte 0 -- -- 91
2018-10-19 16:00:00 13.5 7 Norte 12 Nordeste 0.8 -- -- 92
2018-10-19 15:00:00 13.6 6 Nordeste 20 Nordeste 1.8 -- -- 91
2018-10-19 14:00:00 14.6 8 Nordeste 14 Nordeste 0.2 -- -- 85
2018-10-19 13:00:00 15 8 Norte 15 Norte 0 -- -- 79
2018-10-19 12:00:00 14.7 8 Nordeste 14 Nordeste 0 -- -- 83
2018-10-19 11:00:00 13.1 8 Nordeste 15 Nordeste 0 -- -- 94
2018-10-19 10:00:00 12.3 4 Nordeste 8 Nordeste 0 -- -- 97
2018-10-19 09:00:00 11.7 4 Nordeste 11 Norte 0 -- -- 97
2018-10-19 08:00:00 11.5 6 Norte 10 Norte 0 -- -- 97
2018-10-19 07:00:00 11.6 0 Calma 7 Norte 0 -- -- 95
2018-10-19 06:00:00 12.1 4 Este 9 Nordeste 0 -- -- 94
2018-10-19 05:00:00 12.7 3 Nordeste 13 Nordeste 0 -- -- 92
2018-10-19 04:00:00 12.9 7 Nordeste 11 Nordeste 0 -- -- 94
2018-10-19 03:00:00 12.5 3 Nordeste 6 Norte 0 -- -- 95
2018-10-19 02:00:00 12.7 5 Norte 17 Nordeste 0 -- -- 94
2018-10-19 01:00:00 13.1 12 Nordeste 23 Nordeste 0 -- -- 93
2018-10-19 00:00:00 13.6 14 Nordeste 24 Norte 0 -- -- 90
2018-10-18 23:00:00 13.9 9 Norte 18 Norte 0 -- -- 87
2018-10-18 22:00:00 13.6 5 Norte 12 Norte 0 -- -- 86
2018-10-18 21:00:00 14.4 6 Norte 14 Norte 0 -- -- 75
2018-10-18 20:00:00 15.5 8 Nordeste 18 Este 0 -- -- 68
2018-10-18 19:00:00 16.1 13 Nordeste 28 Nordeste 0 -- -- 65
2018-10-18 18:00:00 17.4 14 Este 36 Este 0 -- -- 60
2018-10-18 17:00:00 18.1 18 Este 36 Nordeste 0 -- -- 59
2018-10-18 16:00:00 19.2 14 Nordeste 32 Nordeste 0 -- -- 53
2018-10-18 15:00:00 19.6 15 Nordeste 29 Nordeste 0 -- -- 52
2018-10-18 14:00:00 19.6 19 Este 30 Este 0 -- -- 53
2018-10-18 13:00:00 17.8 11 Nordeste 19 Nordeste 0 -- -- 62
2018-10-18 12:00:00 16.3 7 Nordeste 14 Norte 0 -- -- 68
2018-10-18 11:00:00 13.7 6 Norte 10 Norte 0 -- -- 78
2018-10-18 10:00:00 12.8 4 Norte 11 Nordeste 0 -- -- 82
2018-10-18 09:00:00 12.7 2 Este 9 Noroeste 0 -- -- 78
2018-10-18 08:00:00 12.8 4 Noroeste 11 Oeste 0 -- -- 77
2018-10-18 07:00:00 13.3 9 Sudeste 25 Sudeste 0 -- -- 74
2018-10-18 06:00:00 15 3 Sur 17 Este 0 -- -- 66
2018-10-18 05:00:00 14.7 5 Sudoeste 18 Este 0 -- -- 71
2018-10-18 04:00:00 14.8 5 Sur 13 Sudeste 0 -- -- 76
2018-10-18 03:00:00 14.8 3 Sudoeste 9 Sur 0 -- -- 76
2018-10-18 02:00:00 15.3 3 Sudeste 16 Este 0 -- -- 74
2018-10-18 01:00:00 15 2 Este 5 Nordeste 0 -- -- 79
2018-10-18 00:00:00 15.7 3 Nordeste 7 Nordeste 0 -- -- 76